Time,TemperatureF,DewpointF,PressureIn,WindDirection,WindDirectionDegrees,WindSpeedMPH,WindSpeedGustMPH,Humidity,HourlyPrecipIn,Conditions,Clouds,dailyrainin,SoftwareType,DateUTC
2014-10-23 00:02:00,47.4,46.6,29.75,NNW,338,0.0,1.0,97,0.07,,---,0.01,VWS V14.01,2014-10-23 04:02:00,
2014-10-23 00:07:00,47.3,46.5,29.75,North,349,0.0,0.0,97,0.07,,---,0.01,VWS V14.01,2014-10-23 04:07:00,
2014-10-23 00:12:00,47.3,46.5,29.76,NNW,333,0.0,1.0,97,0.08,,---,0.02,VWS V14.01,2014-10-23 04:12:00,
2014-10-23 00:17:00,47.3,46.5,29.75,WNW,283,0.0,1.0,97,0.07,,---,0.02,VWS V14.01,2014-10-23 04:17:00,
2014-10-23 00:22:00,47.2,46.4,29.74,NNW,329,0.0,0.0,97,0.06,,---,0.02,VWS V14.01,2014-10-23 04:22:00,
2014-10-23 00:27:00,47.2,46.4,29.75,NE,56,0.0,1.0,97,0.06,,---,0.02,VWS V14.01,2014-10-23 04:27:00,
2014-10-23 00:32:00,47.3,46.5,29.74,ESE,102,0.0,0.0,97,0.06,,---,0.02,VWS V14.01,2014-10-23 04:32:00,
2014-10-23 00:37:00,47.2,46.4,29.75,South,184,0.0,0.0,97,0.06,,---,0.02,VWS V14.01,2014-10-23 04:37:00,
2014-10-23 00:42:00,47.3,46.5,29.75,NNW,346,4.0,4.0,97,0.04,,---,0.02,VWS V14.01,2014-10-23 04:42:00,
2014-10-23 00:47:00,47.2,46.4,29.74,North,349,0.0,0.0,97,0.03,,---,0.03,VWS V14.01,2014-10-23 04:47:00,
2014-10-23 00:52:00,47.2,46.4,29.74,East,91,0.0,1.0,97,0.03,,---,0.03,VWS V14.01,2014-10-23 04:52:00,
2014-10-23 00:57:00,47.2,46.4,29.74,WNW,290,0.0,0.0,97,0.04,,---,0.04,VWS V14.01,2014-10-23 04:57:00,
2014-10-23 01:02:00,47.1,46.3,29.73,NW,314,3.0,3.0,97,0.04,,---,0.05,VWS V14.01,2014-10-23 05:02:00,
2014-10-23 01:07:00,47.1,46.3,29.74,NW,306,0.0,0.0,97,0.05,,---,0.06,VWS V14.01,2014-10-23 05:07:00,
2014-10-23 01:12:00,47.0,46.2,29.73,NNW,327,0.0,1.0,97,0.06,,---,0.08,VWS V14.01,2014-10-23 05:12:00,
2014-10-23 01:17:00,46.9,46.1,29.73,North,9,1.0,1.0,97,0.07,,---,0.09,VWS V14.01,2014-10-23 05:17:00,
2014-10-23 01:22:00,46.9,46.1,29.74,North,9,0.0,0.0,97,0.10,,---,0.12,VWS V14.01,2014-10-23 05:22:00,
2014-10-23 01:27:00,46.9,46.1,29.75,NW,323,0.0,0.0,97,0.12,,---,0.14,VWS V14.01,2014-10-23 05:27:00,
2014-10-23 01:32:00,46.8,46.0,29.75,NW,324,0.0,1.0,97,0.15,,---,0.17,VWS V14.01,2014-10-23 05:32:00,
2014-10-23 01:37:00,46.8,46.0,29.75,NW,319,0.0,0.0,97,0.31,,---,0.33,VWS V14.01,2014-10-23 05:37:00,
2014-10-23 01:42:00,46.7,45.9,29.75,NW,319,0.0,0.0,97,0.34,,---,0.36,VWS V14.01,2014-10-23 05:42:00,
2014-10-23 01:47:00,46.7,45.9,29.76,NW,319,0.0,0.0,97,0.33,,---,0.36,VWS V14.01,2014-10-23 05:47:00,
2014-10-23 01:52:00,46.7,45.9,29.76,NW,319,0.0,0.0,97,0.35,,---,0.38,VWS V14.01,2014-10-23 05:52:00,
2014-10-23 01:57:00,46.7,45.9,29.75,NW,319,0.0,0.0,97,0.36,,---,0.40,VWS V14.01,2014-10-23 05:57:00,
2014-10-23 02:02:00,46.7,45.9,29.75,NW,319,0.0,0.0,97,0.36,,---,0.41,VWS V14.01,2014-10-23 06:02:00,
2014-10-23 02:07:00,46.7,45.9,29.74,West,269,0.0,0.0,97,0.35,,---,0.41,VWS V14.01,2014-10-23 06:07:00,
2014-10-23 02:12:00,46.7,45.9,29.73,SW,229,0.0,0.0,97,0.34,,---,0.42,VWS V14.01,2014-10-23 06:12:00,
2014-10-23 02:17:00,46.7,45.9,29.73,SW,229,1.0,1.0,97,0.33,,---,0.42,VWS V14.01,2014-10-23 06:17:00,
2014-10-23 02:22:00,46.7,45.9,29.73,SW,229,0.0,1.0,97,0.31,,---,0.42,VWS V14.01,2014-10-23 06:22:00,
2014-10-23 02:27:00,46.7,45.9,29.72,SW,229,0.0,0.0,97,0.28,,---,0.42,VWS V14.01,2014-10-23 06:27:00,
2014-10-23 02:32:00,46.7,45.9,29.72,SW,229,0.0,0.0,97,0.26,,---,0.42,VWS V14.01,2014-10-23 06:32:00,
2014-10-23 02:37:00,46.7,45.9,29.72,West,275,1.0,1.0,97,0.10,,---,0.42,VWS V14.01,2014-10-23 06:37:00,
2014-10-23 02:42:00,46.7,45.9,29.72,SSW,206,0.0,0.0,97,0.06,,---,0.42,VWS V14.01,2014-10-23 06:42:00,
2014-10-23 02:47:00,46.7,45.9,29.72,SW,233,0.0,1.0,97,0.07,,---,0.43,VWS V14.01,2014-10-23 06:47:00,
2014-10-23 02:52:00,46.7,45.9,29.71,SW,221,0.0,2.0,97,0.06,,---,0.44,VWS V14.01,2014-10-23 06:52:00,
2014-10-23 02:57:00,46.7,45.9,29.71,WNW,294,0.0,0.0,97,0.05,,---,0.45,VWS V14.01,2014-10-23 06:57:00,
2014-10-23 03:02:00,46.7,46.2,29.70,WNW,294,0.0,0.0,98,0.05,,---,0.46,VWS V14.01,2014-10-23 07:02:00,
2014-10-23 03:07:00,46.7,46.2,29.69,WNW,294,0.0,0.0,98,0.05,,---,0.46,VWS V14.01,2014-10-23 07:07:00,
2014-10-23 03:12:00,46.7,45.9,29.68,SW,232,1.0,1.0,97,0.06,,---,0.48,VWS V14.01,2014-10-23 07:12:00,
2014-10-23 03:17:00,46.7,46.2,29.69,NW,323,0.0,0.0,98,0.06,,---,0.48,VWS V14.01,2014-10-23 07:17:00,
2014-10-23 03:22:00,46.7,46.2,29.70,North,355,0.0,0.0,98,0.06,,---,0.48,VWS V14.01,2014-10-23 07:22:00,
2014-10-23 03:27:00,46.7,46.2,29.69,NW,323,0.0,0.0,98,0.08,,---,0.50,VWS V14.01,2014-10-23 07:27:00,
2014-10-23 03:32:00,46.7,46.2,29.69,West,267,0.0,0.0,98,0.08,,---,0.50,VWS V14.01,2014-10-23 07:32:00,
2014-10-23 03:37:00,46.7,46.2,29.69,NW,319,0.0,0.0,98,0.10,,---,0.52,VWS V14.01,2014-10-23 07:37:00,
2014-10-23 03:42:00,46.7,46.2,29.70,NW,319,0.0,0.0,98,0.12,,---,0.54,VWS V14.01,2014-10-23 07:42:00,
2014-10-23 03:47:00,46.8,46.3,29.69,SE,140,0.0,0.0,98,0.13,,---,0.56,VWS V14.01,2014-10-23 07:47:00,
2014-10-23 03:52:00,46.8,46.3,29.70,NW,304,2.0,2.0,98,0.16,,---,0.60,VWS V14.01,2014-10-23 07:52:00,
2014-10-23 03:57:00,46.8,46.3,29.69,SSW,192,0.0,0.0,98,0.23,,---,0.68,VWS V14.01,2014-10-23 07:57:00,
2014-10-23 04:02:00,46.8,46.3,29.68,NW,317,0.0,0.0,98,0.28,,---,0.74,VWS V14.01,2014-10-23 08:02:00,
2014-10-23 04:07:00,46.8,46.3,29.68,NW,318,0.0,0.0,98,0.31,,---,0.77,VWS V14.01,2014-10-23 08:07:00,
2014-10-23 04:12:00,46.8,46.3,29.67,NE,39,0.0,0.0,98,0.32,,---,0.80,VWS V14.01,2014-10-23 08:12:00,
2014-10-23 04:17:00,46.8,46.3,29.67,NW,313,0.0,0.0,98,0.34,,---,0.82,VWS V14.01,2014-10-23 08:17:00,
2014-10-23 04:22:00,46.9,46.4,29.67,West,259,0.0,0.0,98,0.36,,---,0.84,VWS V14.01,2014-10-23 08:22:00,
2014-10-23 04:27:00,46.9,46.4,29.67,West,260,0.0,0.0,98,0.37,,---,0.86,VWS V14.01,2014-10-23 08:27:00,
2014-10-23 04:32:00,46.9,46.4,29.67,West,260,0.0,0.0,98,0.36,,---,0.86,VWS V14.01,2014-10-23 08:32:00,
2014-10-23 04:37:00,47.0,46.5,29.67,WNW,290,0.0,1.0,98,0.36,,---,0.88,VWS V14.01,2014-10-23 08:37:00,
2014-10-23 04:42:00,47.0,46.5,29.67,WNW,290,0.0,0.0,98,0.35,,---,0.89,VWS V14.01,2014-10-23 08:42:00,
2014-10-23 04:47:00,47.1,46.6,29.67,SE,141,0.0,0.0,98,0.34,,---,0.90,VWS V14.01,2014-10-23 08:47:00,
2014-10-23 04:52:00,47.1,46.6,29.67,SW,226,0.0,0.0,98,0.33,,---,0.93,VWS V14.01,2014-10-23 08:52:00,
2014-10-23 04:57:00,47.2,46.7,29.67,WSW,240,0.0,0.0,98,0.27,,---,0.95,VWS V14.01,2014-10-23 08:57:00,
2014-10-23 05:02:00,47.2,46.7,29.67,WSW,240,0.0,0.0,98,0.22,,---,0.96,VWS V14.01,2014-10-23 09:02:00,
2014-10-23 05:07:00,47.2,46.7,29.67,WSW,240,0.0,0.0,98,0.20,,---,0.97,VWS V14.01,2014-10-23 09:07:00,
2014-10-23 05:12:00,47.3,46.8,29.67,WSW,240,0.0,0.0,98,0.18,,---,0.98,VWS V14.01,2014-10-23 09:12:00,
2014-10-23 05:17:00,47.4,46.9,29.67,WSW,240,0.0,0.0,98,0.16,,---,0.98,VWS V14.01,2014-10-23 09:17:00,
2014-10-23 05:22:00,47.4,46.9,29.68,NW,318,0.0,0.0,98,0.14,,---,0.98,VWS V14.01,2014-10-23 09:22:00,
2014-10-23 05:27:00,47.5,47.0,29.68,West,277,0.0,0.0,98,0.12,,---,0.98,VWS V14.01,2014-10-23 09:27:00,
2014-10-23 05:32:00,47.5,47.0,29.67,WNW,296,0.0,0.0,98,0.14,,---,1.00,VWS V14.01,2014-10-23 09:32:00,
2014-10-23 05:37:00,47.5,47.0,29.68,NW,310,0.0,0.0,98,0.14,,---,1.02,VWS V14.01,2014-10-23 09:37:00,
2014-10-23 05:42:00,47.6,47.1,29.68,NW,310,0.0,0.0,98,0.15,,---,1.04,VWS V14.01,2014-10-23 09:42:00,
2014-10-23 05:47:00,47.6,47.1,29.68,NW,309,0.0,0.0,98,0.15,,---,1.05,VWS V14.01,2014-10-23 09:47:00,
2014-10-23 05:52:00,47.6,47.1,29.67,NW,309,0.0,0.0,98,0.14,,---,1.07,VWS V14.01,2014-10-23 09:52:00,
2014-10-23 05:57:00,47.7,47.2,29.68,NW,309,0.0,0.0,98,0.14,,---,1.08,VWS V14.01,2014-10-23 09:57:00,
2014-10-23 06:02:00,47.7,47.2,29.67,NW,309,0.0,0.0,98,0.14,,---,1.10,VWS V14.01,2014-10-23 10:02:00,
2014-10-23 06:07:00,47.8,47.3,29.67,NW,309,0.0,1.0,98,0.15,,---,1.12,VWS V14.01,2014-10-23 10:07:00,
2014-10-23 06:12:00,47.8,47.3,29.66,NW,309,0.0,0.0,98,0.16,,---,1.14,VWS V14.01,2014-10-23 10:12:00,
2014-10-23 06:17:00,47.8,47.3,29.66,NW,309,0.0,1.0,98,0.18,,---,1.16,VWS V14.01,2014-10-23 10:17:00,
2014-10-23 06:22:00,47.8,47.3,29.65,NW,309,0.0,0.0,98,0.21,,---,1.19,VWS V14.01,2014-10-23 10:22:00,
2014-10-23 06:27:00,47.8,47.3,29.65,NW,309,0.0,0.0,98,0.22,,---,1.20,VWS V14.01,2014-10-23 10:27:00,
2014-10-23 06:32:00,47.9,47.4,29.65,South,169,0.0,0.0,98,0.23,,---,1.23,VWS V14.01,2014-10-23 10:32:00,
2014-10-23 06:37:00,47.9,47.4,29.66,SSE,168,0.0,1.0,98,0.23,,---,1.25,VWS V14.01,2014-10-23 10:37:00,
2014-10-23 06:42:00,47.9,47.4,29.66,WNW,282,0.0,1.0,98,0.24,,---,1.27,VWS V14.01,2014-10-23 10:42:00,
2014-10-23 06:47:00,48.0,47.5,29.66,SSE,165,0.0,2.0,98,0.25,,---,1.29,VWS V14.01,2014-10-23 10:47:00,
2014-10-23 06:52:00,48.0,47.5,29.66,SSE,165,0.0,1.0,98,0.25,,---,1.31,VWS V14.01,2014-10-23 10:52:00,
2014-10-23 06:57:00,48.1,47.6,29.66,SW,224,0.0,0.0,98,0.25,,---,1.33,VWS V14.01,2014-10-23 10:57:00,
2014-10-23 07:02:00,48.1,47.6,29.67,SW,224,0.0,0.0,98,0.25,,---,1.35,VWS V14.01,2014-10-23 11:02:00,
2014-10-23 07:07:00,48.1,47.6,29.67,SW,223,0.0,0.0,98,0.27,,---,1.39,VWS V14.01,2014-10-23 11:07:00,
2014-10-23 07:12:00,48.1,47.6,29.67,SSW,211,0.0,0.0,98,0.31,,---,1.44,VWS V14.01,2014-10-23 11:12:00,
2014-10-23 07:17:00,48.1,47.6,29.66,SSW,211,0.0,0.0,98,0.31,,---,1.47,VWS V14.01,2014-10-23 11:17:00,
2014-10-23 07:22:00,48.1,47.6,29.65,SSW,212,0.0,0.0,98,0.32,,---,1.50,VWS V14.01,2014-10-23 11:22:00,
2014-10-23 07:27:00,48.1,47.6,29.65,SSW,212,0.0,0.0,98,0.33,,---,1.53,VWS V14.01,2014-10-23 11:27:00,
2014-10-23 07:32:00,48.1,47.6,29.66,SSW,212,0.0,0.0,98,0.32,,---,1.55,VWS V14.01,2014-10-23 11:32:00,
2014-10-23 07:37:00,48.1,47.6,29.66,SSW,212,0.0,0.0,98,0.32,,---,1.57,VWS V14.01,2014-10-23 11:37:00,
2014-10-23 07:42:00,48.1,47.6,29.67,SSW,212,0.0,0.0,98,0.33,,---,1.60,VWS V14.01,2014-10-23 11:42:00,
2014-10-23 07:47:00,48.1,47.6,29.67,SSW,212,0.0,0.0,98,0.34,,---,1.63,VWS V14.01,2014-10-23 11:47:00,
2014-10-23 07:52:00,48.1,47.6,29.67,SSW,211,0.0,0.0,98,0.34,,---,1.65,VWS V14.01,2014-10-23 11:52:00,
2014-10-23 07:57:00,48.1,47.6,29.67,SSW,212,0.0,0.0,98,0.35,,---,1.68,VWS V14.01,2014-10-23 11:57:00,
2014-10-23 08:02:00,48.1,47.6,29.66,SSW,213,0.0,0.0,98,0.35,,---,1.70,VWS V14.01,2014-10-23 12:02:00,
2014-10-23 08:07:00,48.1,47.6,29.66,WSW,257,0.0,1.0,98,0.33,,---,1.72,VWS V14.01,2014-10-23 12:07:00,
2014-10-23 08:12:00,48.1,47.6,29.66,WSW,257,0.0,0.0,98,0.32,,---,1.75,VWS V14.01,2014-10-23 12:12:00,
2014-10-23 08:17:00,48.2,47.7,29.66,WSW,258,0.0,0.0,98,0.29,,---,1.76,VWS V14.01,2014-10-23 12:17:00,
2014-10-23 08:22:00,48.3,47.8,29.66,WSW,258,0.0,0.0,98,0.28,,---,1.77,VWS V14.01,2014-10-23 12:22:00,
2014-10-23 08:27:00,48.3,47.8,29.66,WSW,258,0.0,0.0,98,0.25,,---,1.77,VWS V14.01,2014-10-23 12:27:00,
2014-10-23 08:32:00,48.4,47.9,29.65,WSW,258,0.0,0.0,98,0.23,,---,1.77,VWS V14.01,2014-10-23 12:32:00,
2014-10-23 08:37:00,48.4,47.9,29.64,WSW,258,0.0,1.0,98,0.20,,---,1.77,VWS V14.01,2014-10-23 12:37:00,
2014-10-23 08:42:00,48.4,47.9,29.63,WSW,258,0.0,2.0,98,0.18,,---,1.77,VWS V14.01,2014-10-23 12:42:00,
2014-10-23 08:47:00,48.4,47.9,29.62,SSE,160,0.0,2.0,98,0.15,,---,1.77,VWS V14.01,2014-10-23 12:47:00,
2014-10-23 08:52:00,48.3,47.8,29.62,SE,138,0.0,1.0,98,0.13,,---,1.78,VWS V14.01,2014-10-23 12:52:00,
2014-10-23 08:57:00,48.3,47.8,29.62,SE,138,0.0,2.0,98,0.11,,---,1.78,VWS V14.01,2014-10-23 12:57:00,
2014-10-23 09:02:00,48.3,47.8,29.62,SE,138,0.0,0.0,98,0.09,,---,1.78,VWS V14.01,2014-10-23 13:02:00,
2014-10-23 09:07:00,48.3,47.8,29.61,NW,319,0.0,1.0,98,0.07,,---,1.78,VWS V14.01,2014-10-23 13:07:00,
2014-10-23 09:12:00,48.3,47.8,29.62,NW,326,0.0,2.0,98,0.05,,---,1.79,VWS V14.01,2014-10-23 13:12:00,
2014-10-23 09:17:00,48.3,47.8,29.62,NW,317,1.0,2.0,98,0.04,,---,1.79,VWS V14.01,2014-10-23 13:17:00,
2014-10-23 09:22:00,48.2,47.7,29.62,NW,317,0.0,1.0,98,0.04,,---,1.81,VWS V14.01,2014-10-23 13:22:00,
2014-10-23 09:27:00,48.2,47.7,29.62,West,264,0.0,0.0,98,0.05,,---,1.82,VWS V14.01,2014-10-23 13:27:00,
2014-10-23 09:32:00,48.3,47.8,29.62,WNW,287,0.0,0.0,98,0.08,,---,1.85,VWS V14.01,2014-10-23 13:32:00,
2014-10-23 09:37:00,48.3,47.8,29.62,WNW,287,0.0,0.0,98,0.10,,---,1.87,VWS V14.01,2014-10-23 13:37:00,
2014-10-23 09:42:00,48.3,47.8,29.62,WNW,287,0.0,0.0,98,0.12,,---,1.89,VWS V14.01,2014-10-23 13:42:00,
2014-10-23 09:47:00,48.3,47.8,29.62,SSE,150,0.0,2.0,98,0.14,,---,1.91,VWS V14.01,2014-10-23 13:47:00,
2014-10-23 09:52:00,48.3,47.8,29.62,WNW,285,0.0,2.0,98,0.17,,---,1.95,VWS V14.01,2014-10-23 13:52:00,
2014-10-23 09:57:00,48.3,47.8,29.61,WNW,302,0.0,2.0,98,0.21,,---,1.99,VWS V14.01,2014-10-23 13:57:00,
2014-10-23 10:02:00,48.3,47.8,29.60,SSW,199,0.0,1.0,98,0.24,,---,2.02,VWS V14.01,2014-10-23 14:02:00,
2014-10-23 10:07:00,48.3,47.8,29.58,NW,311,3.0,3.0,98,0.28,,---,2.06,VWS V14.01,2014-10-23 14:07:00,
2014-10-23 10:12:00,48.3,47.8,29.56,NNE,33,1.0,1.0,98,0.30,,---,2.09,VWS V14.01,2014-10-23 14:12:00,
2014-10-23 10:17:00,48.3,47.8,29.57,WNW,299,0.0,1.0,98,0.30,,---,2.09,VWS V14.01,2014-10-23 14:17:00,
2014-10-23 10:22:00,48.5,48.0,29.57,WNW,300,3.0,5.0,98,0.28,,---,2.09,VWS V14.01,2014-10-23 14:22:00,
2014-10-23 10:27:00,48.6,48.1,29.57,NW,311,0.0,1.0,98,0.27,,---,2.09,VWS V14.01,2014-10-23 14:27:00,
2014-10-23 10:32:00,49.0,48.5,29.60,ESE,117,0.0,3.0,98,0.25,,---,2.09,VWS V14.01,2014-10-23 14:32:00,
2014-10-23 10:37:00,49.4,48.9,29.60,South,181,0.0,0.0,98,0.23,,---,2.09,VWS V14.01,2014-10-23 14:37:00,
2014-10-23 10:42:00,50.0,49.5,29.60,NW,306,0.0,0.0,98,0.21,,---,2.09,VWS V14.01,2014-10-23 14:42:00,
2014-10-23 10:47:00,50.3,49.8,29.60,NNW,327,0.0,3.0,98,0.18,,---,2.09,VWS V14.01,2014-10-23 14:47:00,
2014-10-23 10:52:00,50.1,49.6,29.59,WNW,298,2.0,5.0,98,0.14,,---,2.09,VWS V14.01,2014-10-23 14:52:00,
2014-10-23 10:57:00,49.9,49.4,29.59,West,270,0.0,2.0,98,0.10,,---,2.09,VWS V14.01,2014-10-23 14:57:00,
2014-10-23 11:02:00,49.8,49.3,29.59,East,101,0.0,3.0,98,0.08,,---,2.09,VWS V14.01,2014-10-23 15:02:00,
2014-10-23 11:07:00,49.9,49.4,29.59,West,264,0.0,2.0,98,0.04,,---,2.09,VWS V14.01,2014-10-23 15:07:00,
2014-10-23 11:12:00,50.0,49.5,29.58,ESE,119,0.0,3.0,98,0.00,,---,2.09,VWS V14.01,2014-10-23 15:12:00,
2014-10-23 11:17:00,50.1,49.6,29.58,WNW,288,0.0,3.0,98,0.00,,---,2.09,VWS V14.01,2014-10-23 15:17:00,
2014-10-23 11:22:00,50.1,49.6,29.58,South,171,0.0,2.0,98,0.00,,---,2.09,VWS V14.01,2014-10-23 15:22:00,
2014-10-23 11:27:00,50.1,49.6,29.59,ESE,114,1.0,3.0,98,0.00,,---,2.09,VWS V14.01,2014-10-23 15:27:00,
2014-10-23 11:32:00,49.9,49.4,29.59,NNW,336,0.0,1.0,98,0.00,,---,2.09,VWS V14.01,2014-10-23 15:32:00,
2014-10-23 11:37:00,50.0,49.5,29.59,SSW,205,1.0,2.0,98,0.00,,---,2.09,VWS V14.01,2014-10-23 15:37:00,
2014-10-23 11:42:00,50.0,49.5,29.59,SSE,151,0.0,2.0,98,0.00,,---,2.09,VWS V14.01,2014-10-23 15:42:00,
2014-10-23 11:47:00,49.9,49.4,29.59,NNW,341,0.0,2.0,98,0.00,,---,2.09,VWS V14.01,2014-10-23 15:47:00,
2014-10-23 11:52:00,49.9,49.4,29.59,NW,313,0.0,0.0,98,0.00,,---,2.09,VWS V14.01,2014-10-23 15:52:00,
2014-10-23 11:57:00,50.0,49.5,29.59,NW,309,0.0,2.0,98,0.01,,---,2.10,VWS V14.01,2014-10-23 15:57:00,
2014-10-23 12:02:00,50.1,49.6,29.58,ESE,106,3.0,3.0,98,0.01,,---,2.10,VWS V14.01,2014-10-23 16:02:00,
2014-10-23 12:07:00,50.2,49.7,29.59,East,100,0.0,0.0,98,0.01,,---,2.10,VWS V14.01,2014-10-23 16:07:00,
2014-10-23 12:12:00,50.3,49.8,29.59,WNW,291,0.0,1.0,98,0.01,,---,2.10,VWS V14.01,2014-10-23 16:12:00,
2014-10-23 12:17:00,50.5,50.0,29.59,WNW,295,0.0,1.0,98,0.01,,---,2.10,VWS V14.01,2014-10-23 16:17:00,
2014-10-23 12:22:00,50.6,50.1,29.59,East,94,0.0,1.0,98,0.01,,---,2.10,VWS V14.01,2014-10-23 16:22:00,
2014-10-23 12:27:00,50.7,50.2,29.59,ESE,118,0.0,1.0,98,0.01,,---,2.10,VWS V14.01,2014-10-23 16:27:00,
2014-10-23 12:32:00,50.8,50.3,29.58,ESE,118,0.0,0.0,98,0.01,,---,2.10,VWS V14.01,2014-10-23 16:32:00,
2014-10-23 12:37:00,50.9,50.4,29.58,North,5,0.0,1.0,98,0.01,,---,2.10,VWS V14.01,2014-10-23 16:37:00,
2014-10-23 12:42:00,51.1,50.6,29.58,East,82,0.0,1.0,98,0.01,,---,2.10,VWS V14.01,2014-10-23 16:42:00,
2014-10-23 12:47:00,51.2,50.7,29.58,North,355,0.0,0.0,98,0.01,,---,2.10,VWS V14.01,2014-10-23 16:47:00,
2014-10-23 12:52:00,51.4,50.9,29.57,NW,325,0.0,0.0,98,0.01,,---,2.10,VWS V14.01,2014-10-23 16:52:00,
2014-10-23 12:57:00,51.5,51.0,29.57,SSE,161,0.0,2.0,98,0.00,,---,2.10,VWS V14.01,2014-10-23 16:57:00,
2014-10-23 13:02:00,51.5,51.0,29.57,NW,310,0.0,2.0,98,0.00,,---,2.10,VWS V14.01,2014-10-23 17:02:00,
2014-10-23 13:07:00,51.7,51.2,29.57,North,355,0.0,1.0,98,0.00,,---,2.10,VWS V14.01,2014-10-23 17:07:00,
2014-10-23 13:12:00,51.9,51.4,29.57,East,86,0.0,1.0,98,0.00,,---,2.10,VWS V14.01,2014-10-23 17:12:00,
2014-10-23 13:17:00,52.0,51.5,29.57,NW,304,0.0,2.0,98,0.02,,---,2.12,VWS V14.01,2014-10-23 17:17:00,
2014-10-23 13:22:00,52.0,51.5,29.57,WSW,247,0.0,1.0,98,0.05,,---,2.15,VWS V14.01,2014-10-23 17:22:00,
2014-10-23 13:27:00,51.9,51.4,29.57,NW,316,3.0,3.0,98,0.07,,---,2.17,VWS V14.01,2014-10-23 17:27:00,
2014-10-23 13:32:00,51.6,51.1,29.57,WSW,240,1.0,1.0,98,0.10,,---,2.20,VWS V14.01,2014-10-23 17:32:00,
2014-10-23 13:37:00,51.5,51.0,29.57,WNW,291,0.0,0.0,98,0.11,,---,2.21,VWS V14.01,2014-10-23 17:37:00,
2014-10-23 13:42:00,51.5,51.0,29.57,SSW,211,1.0,1.0,98,0.11,,---,2.21,VWS V14.01,2014-10-23 17:42:00,
2014-10-23 13:47:00,51.4,50.9,29.56,NW,326,0.0,1.0,98,0.11,,---,2.21,VWS V14.01,2014-10-23 17:47:00,
2014-10-23 13:52:00,51.3,50.8,29.56,West,269,0.0,0.0,98,0.11,,---,2.21,VWS V14.01,2014-10-23 17:52:00,
2014-10-23 13:57:00,51.3,50.8,29.56,West,269,0.0,0.0,98,0.11,,---,2.21,VWS V14.01,2014-10-23 17:57:00,
2014-10-23 14:02:00,51.2,50.7,29.56,WNW,295,0.0,0.0,98,0.11,,---,2.21,VWS V14.01,2014-10-23 18:02:00,
2014-10-23 14:07:00,51.2,50.7,29.56,WNW,290,0.0,0.0,98,0.11,,---,2.21,VWS V14.01,2014-10-23 18:07:00,
2014-10-23 14:12:00,51.2,50.7,29.56,SSW,198,0.0,4.0,98,0.11,,---,2.21,VWS V14.01,2014-10-23 18:12:00,
2014-10-23 14:17:00,51.2,50.7,29.56,NW,321,0.0,4.0,98,0.10,,---,2.21,VWS V14.01,2014-10-23 18:17:00,
2014-10-23 14:22:00,51.3,50.8,29.56,NW,326,0.0,2.0,98,0.06,,---,2.21,VWS V14.01,2014-10-23 18:22:00,
2014-10-23 14:27:00,51.4,50.9,29.56,NNW,333,1.0,1.0,98,0.05,,---,2.21,VWS V14.01,2014-10-23 18:27:00,
2014-10-23 14:32:00,51.5,51.0,29.56,NNW,333,0.0,0.0,98,0.02,,---,2.21,VWS V14.01,2014-10-23 18:32:00,
2014-10-23 14:37:00,51.6,51.1,29.56,NNW,333,0.0,1.0,98,0.00,,---,2.21,VWS V14.01,2014-10-23 18:37:00,
2014-10-23 14:42:00,51.6,51.1,29.56,NW,326,0.0,1.0,98,0.00,,---,2.21,VWS V14.01,2014-10-23 18:42:00,
2014-10-23 14:47:00,51.7,51.2,29.56,WNW,294,0.0,0.0,98,0.00,,---,2.21,VWS V14.01,2014-10-23 18:47:00,
2014-10-23 14:52:00,51.6,51.1,29.56,SSE,166,0.0,0.0,98,0.00,,---,2.21,VWS V14.01,2014-10-23 18:52:00,
2014-10-23 14:57:00,51.6,51.1,29.56,SSE,165,0.0,1.0,98,0.00,,---,2.21,VWS V14.01,2014-10-23 18:57:00,
2014-10-23 15:02:00,51.5,51.0,29.56,NW,307,3.0,3.0,98,0.00,,---,2.21,VWS V14.01,2014-10-23 19:02:00,
2014-10-23 15:07:00,51.4,50.9,29.56,NNE,33,0.0,1.0,98,0.00,,---,2.21,VWS V14.01,2014-10-23 19:07:00,
2014-10-23 15:12:00,51.4,50.9,29.56,NNE,33,0.0,1.0,98,0.00,,---,2.21,VWS V14.01,2014-10-23 19:12:00,
2014-10-23 15:17:00,51.3,50.8,29.56,NW,317,0.0,1.0,98,0.00,,---,2.21,VWS V14.01,2014-10-23 19:17:00,
2014-10-23 15:22:00,51.3,50.8,29.56,SSW,200,1.0,1.0,98,0.00,,---,2.21,VWS V14.01,2014-10-23 19:22:00,
2014-10-23 15:27:00,51.2,50.7,29.57,North,9,0.0,1.0,98,0.00,,---,2.21,VWS V14.01,2014-10-23 19:27:00,
2014-10-23 15:32:00,51.2,50.7,29.57,SW,236,1.0,3.0,98,0.00,,---,2.21,VWS V14.01,2014-10-23 19:32:00,
2014-10-23 15:37:00,51.2,50.7,29.57,NW,317,0.0,4.0,98,0.01,,---,2.22,VWS V14.01,2014-10-23 19:37:00,
2014-10-23 15:42:00,51.2,50.7,29.56,NW,313,1.0,1.0,98,0.01,,---,2.22,VWS V14.01,2014-10-23 19:42:00,
2014-10-23 15:47:00,51.3,50.8,29.57,NE,40,0.0,0.0,98,0.02,,---,2.23,VWS V14.01,2014-10-23 19:47:00,
2014-10-23 15:52:00,51.2,50.7,29.57,West,260,0.0,1.0,98,0.04,,---,2.25,VWS V14.01,2014-10-23 19:52:00,
2014-10-23 15:57:00,51.3,50.8,29.57,West,263,1.0,1.0,98,0.04,,---,2.25,VWS V14.01,2014-10-23 19:57:00,
2014-10-23 16:02:00,51.2,50.7,29.57,WSW,242,0.0,1.0,98,0.04,,---,2.25,VWS V14.01,2014-10-23 20:02:00,
2014-10-23 16:07:00,51.2,50.7,29.57,SSE,150,0.0,1.0,98,0.04,,---,2.25,VWS V14.01,2014-10-23 20:07:00,
2014-10-23 16:12:00,51.1,50.6,29.57,WSW,239,0.0,0.0,98,0.05,,---,2.26,VWS V14.01,2014-10-23 20:12:00,
2014-10-23 16:17:00,51.0,50.5,29.57,ESE,114,0.0,1.0,98,0.05,,---,2.26,VWS V14.01,2014-10-23 20:17:00,
2014-10-23 16:22:00,51.0,50.5,29.57,NNW,329,0.0,0.0,98,0.05,,---,2.26,VWS V14.01,2014-10-23 20:22:00,
2014-10-23 16:27:00,51.0,50.5,29.57,SE,134,0.0,0.0,98,0.05,,---,2.26,VWS V14.01,2014-10-23 20:27:00,
2014-10-23 16:32:00,51.0,50.5,29.57,SSE,156,0.0,1.0,98,0.05,,---,2.26,VWS V14.01,2014-10-23 20:32:00,
2014-10-23 16:37:00,51.0,50.5,29.57,ENE,60,0.0,1.0,98,0.05,,---,2.26,VWS V14.01,2014-10-23 20:37:00,
2014-10-23 16:42:00,51.0,50.5,29.57,NNW,344,0.0,2.0,98,0.04,,---,2.26,VWS V14.01,2014-10-23 20:42:00,
2014-10-23 16:47:00,51.0,50.5,29.57,NNW,348,0.0,1.0,98,0.04,,---,2.27,VWS V14.01,2014-10-23 20:47:00,
2014-10-23 16:52:00,51.0,50.5,29.57,NNW,348,0.0,0.0,98,0.02,,---,2.27,VWS V14.01,2014-10-23 20:52:00,
2014-10-23 16:57:00,51.0,50.5,29.57,NNW,348,0.0,0.0,98,0.02,,---,2.27,VWS V14.01,2014-10-23 20:57:00,
2014-10-23 17:02:00,50.9,50.4,29.58,North,349,0.0,1.0,98,0.02,,---,2.27,VWS V14.01,2014-10-23 21:02:00,
2014-10-23 17:07:00,50.9,50.4,29.58,North,355,0.0,2.0,98,0.02,,---,2.27,VWS V14.01,2014-10-23 21:07:00,
2014-10-23 17:12:00,50.9,50.4,29.58,NNW,344,0.0,1.0,98,0.01,,---,2.27,VWS V14.01,2014-10-23 21:12:00,
2014-10-23 17:17:00,50.9,50.4,29.58,SW,234,0.0,1.0,98,0.01,,---,2.27,VWS V14.01,2014-10-23 21:17:00,